createdAt,value
2023-05-24T00:00:36.482Z,0.00
2023-05-24T00:01:36.469Z,0.00
2023-05-24T00:02:36.532Z,0.00
2023-05-24T00:03:36.576Z,0.00
2023-05-24T00:04:36.457Z,0.00
2023-05-24T00:05:36.415Z,0.00
2023-05-24T00:06:36.405Z,0.00
2023-05-24T00:07:36.411Z,0.00
2023-05-24T00:08:36.375Z,0.00
2023-05-24T00:09:36.376Z,0.00
2023-05-24T00:10:36.350Z,0.00
2023-05-24T00:11:36.334Z,0.00
2023-05-24T00:12:36.316Z,0.00
2023-05-24T00:13:36.304Z,0.00
2023-05-24T00:14:36.290Z,0.00
2023-05-24T00:15:36.278Z,0.00
2023-05-24T00:16:36.292Z,0.00
2023-05-24T00:17:36.258Z,0.00
2023-05-24T00:18:36.243Z,0.00
2023-05-24T00:19:36.225Z,0.00
2023-05-24T00:20:36.265Z,0.00
2023-05-24T00:21:36.196Z,0.00
2023-05-24T00:22:36.192Z,0.00
2023-05-24T00:23:36.201Z,0.00
2023-05-24T00:24:36.159Z,0.00
2023-05-24T00:25:36.143Z,0.00
2023-05-24T00:26:36.127Z,0.00
2023-05-24T00:27:36.125Z,0.00
2023-05-24T00:28:36.099Z,0.00
2023-05-24T00:29:36.091Z,0.00
2023-05-24T00:30:36.078Z,0.00
2023-05-24T00:31:36.172Z,0.00
2023-05-24T00:32:36.117Z,0.00
2023-05-24T00:33:36.049Z,0.00
2023-05-24T00:34:36.032Z,0.00
2023-05-24T00:35:36.013Z,0.00
2023-05-24T00:36:36.000Z,0.00
2023-05-24T00:37:35.993Z,0.00
2023-05-24T00:38:35.976Z,0.00
2023-05-24T00:39:35.985Z,0.00
2023-05-24T00:40:35.946Z,0.00
2023-05-24T00:41:35.938Z,0.00
2023-05-24T00:42:35.918Z,0.00
2023-05-24T00:43:35.904Z,0.00
2023-05-24T00:44:35.896Z,0.00
2023-05-24T00:45:35.884Z,0.00
2023-05-24T00:46:35.984Z,0.00
2023-05-24T00:47:35.884Z,0.00
2023-05-24T00:48:35.846Z,0.00
2023-05-24T00:49:35.837Z,0.00
2023-05-24T00:50:35.819Z,0.00
2023-05-24T00:51:35.808Z,0.00
2023-05-24T00:52:35.795Z,0.00
2023-05-24T00:53:35.786Z,0.00
2023-05-24T00:54:35.768Z,0.00
2023-05-24T00:55:35.777Z,0.00
2023-05-24T00:56:35.736Z,0.00
2023-05-24T00:57:35.734Z,0.00
2023-05-24T00:58:35.714Z,0.00
2023-05-24T00:59:35.697Z,0.00
2023-05-24T01:00:35.686Z,0.00
2023-05-24T01:01:35.760Z,0.00
2023-05-24T01:02:35.707Z,0.00
2023-05-24T01:03:36.023Z,0.00
2023-05-24T01:04:35.630Z,0.00
2023-05-24T01:05:35.627Z,0.00
2023-05-24T01:06:35.613Z,0.00
2023-05-24T01:07:35.599Z,0.00
2023-05-24T01:08:38.597Z,0.00
2023-05-24T01:09:35.581Z,0.00
2023-05-24T01:10:35.549Z,0.00
2023-05-24T01:11:35.562Z,0.00
2023-05-24T01:12:35.538Z,0.00
2023-05-24T01:13:35.518Z,0.00
2023-05-24T01:14:35.515Z,0.00
2023-05-24T01:15:35.498Z,0.00
2023-05-24T01:16:35.546Z,0.00
2023-05-24T01:17:35.506Z,0.00
2023-05-24T01:18:35.456Z,0.00
2023-05-24T01:19:35.442Z,0.00
2023-05-24T01:20:35.536Z,0.00
2023-05-24T01:21:35.410Z,0.00
2023-05-24T01:22:35.398Z,0.00
2023-05-24T01:23:35.385Z,0.00
2023-05-24T01:24:35.369Z,0.00
2023-05-24T01:25:35.378Z,0.00
2023-05-24T01:26:35.341Z,0.00
2023-05-24T01:27:35.351Z,0.00
2023-05-24T01:28:35.355Z,0.00
2023-05-24T01:29:35.317Z,0.00
2023-05-24T01:30:35.305Z,0.00
2023-05-24T01:31:35.312Z,0.00
2023-05-24T01:32:35.323Z,0.00
2023-05-24T01:33:35.257Z,0.00
2023-05-24T01:34:35.245Z,0.00
2023-05-24T01:35:35.231Z,0.00
2023-05-24T01:36:35.217Z,0.00
2023-05-24T01:37:35.205Z,0.00
2023-05-24T01:38:35.191Z,0.00
2023-05-24T01:39:35.173Z,0.00
2023-05-24T01:40:35.170Z,0.00
2023-05-24T01:41:35.148Z,0.00
2023-05-24T01:42:35.132Z,0.00
2023-05-24T01:43:35.140Z,0.00
2023-05-24T01:44:35.112Z,0.00
2023-05-24T01:45:35.104Z,0.00
2023-05-24T01:46:35.125Z,0.00
2023-05-24T01:47:35.101Z,0.00
2023-05-24T01:48:35.052Z,0.00
2023-05-24T01:49:35.038Z,0.00
2023-05-24T01:50:35.023Z,0.00
2023-05-24T01:51:35.013Z,0.00
2023-05-24T01:52:35.005Z,0.00
2023-05-24T01:53:34.981Z,0.00
2023-05-24T01:54:34.969Z,0.00
2023-05-24T01:55:34.962Z,0.00
2023-05-24T01:56:34.945Z,0.00
2023-05-24T01:57:34.949Z,0.00
2023-05-24T01:58:34.916Z,0.00
2023-05-24T01:59:34.932Z,0.00
2023-05-24T02:00:34.895Z,0.00
2023-05-24T02:01:34.903Z,0.00
2023-05-24T02:02:34.941Z,0.00
2023-05-24T02:03:34.887Z,0.00
2023-05-24T02:04:34.840Z,0.00
2023-05-24T02:05:34.833Z,0.00
2023-05-24T02:06:34.815Z,0.00
2023-05-24T02:07:34.809Z,0.00
2023-05-24T02:08:34.793Z,0.00
2023-05-24T02:09:34.787Z,0.00
2023-05-24T02:10:34.776Z,0.00
2023-05-24T02:11:34.767Z,0.00
2023-05-24T02:12:34.732Z,0.00
2023-05-24T02:13:34.715Z,0.00
2023-05-24T02:14:34.709Z,0.00
2023-05-24T02:15:34.714Z,0.00
2023-05-24T02:16:34.706Z,0.00
2023-05-24T02:17:34.744Z,0.00
2023-05-24T02:18:34.738Z,0.00
2023-05-24T02:19:34.650Z,0.00
2023-05-24T02:20:34.658Z,0.00
2023-05-24T02:21:34.616Z,0.00
2023-05-24T02:22:34.617Z,0.00
2023-05-24T02:23:34.592Z,0.00
2023-05-24T02:24:34.601Z,0.00
2023-05-24T02:25:34.555Z,0.00
2023-05-24T02:26:34.553Z,0.00
2023-05-24T02:27:34.538Z,0.00
2023-05-24T02:28:34.537Z,0.00
2023-05-24T02:29:34.513Z,0.00
2023-05-24T02:30:34.500Z,0.00
2023-05-24T02:31:34.672Z,0.00
2023-05-24T02:32:34.499Z,0.00
2023-05-24T02:33:34.459Z,0.00
2023-05-24T02:34:34.440Z,0.00
2023-05-24T02:35:34.498Z,0.00
2023-05-24T02:36:34.416Z,0.00
2023-05-24T02:37:34.402Z,0.00
2023-05-24T02:38:34.386Z,0.00
2023-05-24T02:39:34.371Z,0.00
2023-05-24T02:40:34.367Z,0.00
2023-05-24T02:41:34.351Z,0.00
2023-05-24T02:42:34.329Z,0.00
2023-05-24T02:43:34.323Z,0.00
2023-05-24T02:44:34.304Z,0.00
2023-05-24T02:45:34.316Z,0.00
2023-05-24T02:46:34.403Z,0.00
2023-05-24T02:47:34.307Z,0.00
2023-05-24T02:48:34.252Z,0.00
2023-05-24T02:49:34.237Z,0.00
2023-05-24T02:50:34.233Z,0.00
2023-05-24T02:51:34.210Z,0.00
2023-05-24T02:52:34.198Z,0.00
2023-05-24T02:53:34.198Z,0.00
2023-05-24T02:54:34.227Z,0.00
2023-05-24T02:55:34.518Z,0.00
2023-05-24T02:56:34.169Z,0.00
2023-05-24T02:57:34.139Z,0.00
2023-05-24T02:58:34.125Z,0.00
2023-05-24T02:59:34.102Z,0.00
2023-05-24T03:00:34.112Z,0.00
2023-05-24T03:01:34.169Z,0.00
2023-05-24T03:02:34.223Z,0.00
2023-05-24T03:03:34.148Z,0.00
2023-05-24T03:04:34.038Z,0.00
2023-05-24T03:05:34.024Z,0.00
2023-05-24T03:06:34.015Z,0.00
2023-05-24T03:07:34.002Z,0.00
2023-05-24T03:08:33.984Z,4.00
2023-05-24T03:09:33.987Z,4.00
2023-05-24T03:10:33.952Z,0.00
2023-05-24T03:11:33.951Z,0.00
2023-05-24T03:12:33.934Z,4.00
2023-05-24T03:13:33.927Z,4.00
2023-05-24T03:14:33.905Z,4.00
2023-05-24T03:15:34.442Z,4.00
2023-05-24T03:16:33.889Z,4.00
2023-05-24T03:17:33.905Z,8.00
2023-05-24T03:18:33.857Z,8.00
2023-05-24T03:19:33.876Z,8.00
2023-05-24T03:20:33.980Z,12.00
2023-05-24T03:21:33.812Z,12.00
2023-05-24T03:22:33.803Z,12.00
2023-05-24T03:23:33.781Z,12.00
2023-05-24T03:24:33.779Z,20.00
2023-05-24T03:25:33.749Z,20.00
2023-05-24T03:26:33.748Z,20.00
2023-05-24T03:27:33.722Z,20.00
2023-05-24T03:28:33.772Z,24.00
2023-05-24T03:29:33.706Z,28.00
2023-05-24T03:30:33.696Z,32.00
2023-05-24T03:31:33.737Z,36.00
2023-05-24T03:32:33.792Z,36.00
2023-05-24T03:33:33.654Z,40.00
2023-05-24T03:34:33.647Z,40.00
2023-05-24T03:35:33.647Z,36.00
2023-05-24T03:36:33.609Z,36.00
2023-05-24T03:37:33.597Z,40.00
2023-05-24T03:38:33.631Z,40.00
2023-05-24T03:39:33.574Z,40.00
2023-05-24T03:40:33.989Z,48.00
2023-05-24T03:41:33.548Z,52.00
2023-05-24T03:42:33.529Z,60.00
2023-05-24T03:43:33.513Z,68.00
2023-05-24T03:44:33.522Z,76.00
2023-05-24T03:45:39.178Z,76.00
2023-05-24T03:46:34.613Z,80.00
2023-05-24T03:47:33.516Z,84.00
2023-05-24T03:48:33.455Z,92.00
2023-05-24T03:49:33.455Z,96.00
2023-05-24T03:50:33.439Z,104.00
2023-05-24T03:51:33.428Z,104.00
2023-05-24T03:52:33.405Z,104.00
2023-05-24T03:53:33.371Z,108.00
2023-05-24T03:54:33.374Z,108.00
2023-05-24T03:55:33.365Z,108.00
2023-05-24T03:56:33.338Z,108.00
2023-05-24T03:57:33.325Z,112.00
2023-05-24T03:58:33.329Z,124.00
2023-05-24T03:59:33.304Z,132.00
2023-05-24T04:00:33.298Z,140.00
2023-05-24T04:01:34.899Z,144.00
2023-05-24T04:02:33.323Z,152.00
2023-05-24T04:03:33.315Z,160.00
2023-05-24T04:06:28.508Z,204.00
2023-05-24T04:07:28.525Z,224.00
2023-05-24T04:08:28.486Z,240.00
2023-05-24T04:09:28.470Z,248.00
2023-05-24T04:10:28.450Z,248.00
2023-05-24T04:11:28.582Z,252.00
2023-05-24T04:12:28.432Z,248.00
2023-05-24T04:13:28.419Z,248.00
2023-05-24T04:14:28.394Z,244.00
2023-05-24T04:15:28.377Z,248.00
2023-05-24T04:16:28.672Z,252.00
2023-05-24T04:17:28.530Z,264.00
2023-05-24T04:18:28.662Z,264.00
2023-05-24T04:19:28.543Z,264.00
2023-05-24T04:20:28.375Z,268.00
2023-05-24T04:21:28.296Z,276.00
2023-05-24T04:22:28.291Z,284.00
2023-05-24T04:23:28.297Z,304.00
2023-05-24T04:24:28.314Z,328.00
2023-05-24T04:25:28.239Z,352.00
2023-05-24T04:26:28.224Z,384.00
2023-05-24T04:27:28.225Z,408.00
2023-05-24T04:28:28.208Z,444.00
2023-05-24T04:29:28.193Z,480.00
2023-05-24T04:30:28.177Z,504.00
2023-05-24T04:31:28.172Z,520.00
2023-05-24T04:32:28.184Z,540.00
2023-05-24T04:33:28.137Z,560.00
2023-05-24T04:34:28.123Z,596.00
2023-05-24T04:35:28.105Z,632.00
2023-05-24T04:36:28.105Z,660.00
2023-05-24T04:37:28.086Z,684.00
2023-05-24T04:38:28.067Z,720.00
2023-05-24T04:39:28.086Z,768.00
2023-05-24T04:40:28.045Z,804.00
2023-05-24T04:41:28.028Z,856.00
2023-05-24T04:42:28.012Z,892.00
2023-05-24T04:43:28.009Z,928.00
2023-05-24T04:44:27.985Z,952.00
2023-05-24T04:45:27.974Z,972.00
2023-05-24T04:46:28.175Z,988.00
2023-05-24T04:47:28.004Z,1016.00
2023-05-24T04:48:27.936Z,1044.00
2023-05-24T04:49:27.920Z,1076.00
2023-05-24T04:50:27.903Z,1108.00
2023-05-24T04:51:27.895Z,1136.00
2023-05-24T04:52:27.884Z,1172.00
2023-05-24T04:53:27.878Z,1212.00
2023-05-24T04:54:27.851Z,1240.00
2023-05-24T04:55:27.871Z,1252.00
2023-05-24T04:56:27.823Z,1268.00
2023-05-24T04:57:27.809Z,1276.00
2023-05-24T04:58:27.791Z,1288.00
2023-05-24T04:59:27.791Z,1292.00
2023-05-24T05:00:27.774Z,1304.00
2023-05-24T05:01:28.162Z,1312.00
2023-05-24T05:02:27.804Z,1312.00
2023-05-24T05:03:27.999Z,1320.00
2023-05-24T05:04:27.716Z,1324.00
2023-05-24T05:05:27.705Z,1328.00
2023-05-24T05:06:27.688Z,1304.00
2023-05-24T05:07:27.668Z,1236.00
2023-05-24T05:08:27.657Z,1168.00
2023-05-24T05:09:27.649Z,1140.00
2023-05-24T05:10:27.631Z,1148.00
2023-05-24T05:11:27.641Z,1184.00
2023-05-24T05:12:27.604Z,1204.00
2023-05-24T05:13:27.605Z,1220.00
2023-05-24T05:14:27.575Z,1200.00
2023-05-24T05:15:27.575Z,1164.00
2023-05-24T05:16:27.593Z,1132.00
2023-05-24T05:17:27.532Z,1096.00
2023-05-24T05:18:27.516Z,1068.00
2023-05-24T05:19:27.510Z,1032.00
2023-05-24T05:20:27.548Z,1024.00
2023-05-24T05:21:27.930Z,1024.00
2023-05-24T05:22:29.394Z,1024.00
2023-05-24T05:23:27.452Z,1020.00
2023-05-24T05:24:27.445Z,1016.00
2023-05-24T05:25:27.426Z,1000.00
2023-05-24T05:26:27.412Z,1000.00
2023-05-24T05:27:27.425Z,1032.00
2023-05-24T05:28:27.387Z,1088.00
2023-05-24T05:29:27.374Z,1168.00
2023-05-24T05:30:27.359Z,1240.00
2023-05-24T05:31:27.334Z,1292.00
2023-05-24T05:32:27.370Z,1332.00
2023-05-24T05:33:27.342Z,1384.00
2023-05-24T05:34:27.299Z,1460.00
2023-05-24T05:35:27.294Z,1560.00
2023-05-24T05:36:27.288Z,1644.00
2023-05-24T05:37:27.263Z,1692.00
2023-05-24T05:38:27.261Z,1728.00
2023-05-24T05:39:27.238Z,1820.00
2023-05-24T05:40:27.221Z,1992.00
2023-05-24T05:41:27.204Z,2088.00
2023-05-24T05:42:27.196Z,2056.00
2023-05-24T05:43:27.224Z,1964.00
2023-05-24T05:44:27.162Z,1880.00
2023-05-24T05:45:27.164Z,1880.00
2023-05-24T05:46:27.159Z,1860.00
2023-05-24T05:47:27.268Z,1852.00
2023-05-24T05:48:27.124Z,1792.00
2023-05-24T05:49:27.125Z,1760.00
2023-05-24T05:50:27.093Z,1800.00
2023-05-24T05:51:27.115Z,1864.00
2023-05-24T05:52:27.263Z,1860.00
2023-05-24T05:53:27.078Z,1824.00
2023-05-24T05:54:27.035Z,1792.00
2023-05-24T05:55:27.180Z,1840.00
2023-05-24T05:56:27.007Z,1964.00
2023-05-24T05:57:26.991Z,2108.00
2023-05-24T05:58:26.982Z,2148.00
2023-05-24T05:59:27.019Z,2116.00
2023-05-24T06:00:26.957Z,2052.00
2023-05-24T06:01:26.964Z,2024.00
2023-05-24T06:02:27.103Z,2056.00
2023-05-24T06:03:27.011Z,2120.00
2023-05-24T06:04:26.948Z,2156.00
2023-05-24T06:05:26.940Z,2212.00
2023-05-24T06:06:27.171Z,2280.00
2023-05-24T06:07:26.951Z,2400.00
2023-05-24T06:08:26.842Z,2544.00
2023-05-24T06:09:26.827Z,2608.00
2023-05-24T06:10:26.816Z,2564.00
2023-05-24T06:11:26.798Z,2480.00
2023-05-24T06:12:26.788Z,2456.00
2023-05-24T06:13:26.771Z,2532.00
2023-05-24T06:14:26.757Z,2592.00
2023-05-24T06:15:26.784Z,2668.00
2023-05-24T06:16:26.766Z,2788.00
2023-05-24T06:17:26.755Z,2836.00
2023-05-24T06:18:26.708Z,2900.00
2023-05-24T06:19:26.689Z,3048.00
2023-05-24T06:20:26.752Z,3240.00
2023-05-24T06:21:26.657Z,3524.00
2023-05-24T06:22:26.646Z,3804.00
2023-05-24T06:23:26.653Z,4020.00
2023-05-24T06:24:26.625Z,4260.00
2023-05-24T06:25:26.603Z,4548.00
2023-05-24T06:26:26.591Z,4924.00
2023-05-24T06:27:26.576Z,5108.00
2023-05-24T06:28:26.572Z,5116.00
2023-05-24T06:29:26.546Z,5100.00
2023-05-24T06:30:26.623Z,5040.00
2023-05-24T06:31:26.597Z,5076.00
2023-05-24T06:32:26.542Z,5072.00
2023-05-24T06:33:26.499Z,5088.00
2023-05-24T06:34:26.484Z,5200.00
2023-05-24T06:35:26.474Z,5416.00
2023-05-24T06:36:26.461Z,5308.00
2023-05-24T06:37:26.446Z,5092.00
2023-05-24T06:38:26.437Z,5008.00
2023-05-24T06:39:26.424Z,5024.00
2023-05-24T06:40:26.407Z,4912.00
2023-05-24T06:41:26.396Z,4900.00
2023-05-24T06:42:26.383Z,4872.00
2023-05-24T06:43:26.360Z,4812.00
2023-05-24T06:44:26.357Z,4628.00
2023-05-24T06:45:26.344Z,4448.00
2023-05-24T06:46:26.408Z,4232.00
2023-05-24T06:47:26.548Z,4068.00
2023-05-24T06:48:26.354Z,4064.00
2023-05-24T06:49:26.301Z,4164.00
2023-05-24T06:50:26.663Z,4400.00
2023-05-24T06:51:26.262Z,4572.00
2023-05-24T06:52:26.243Z,4636.00
2023-05-24T06:53:26.229Z,4596.00
2023-05-24T06:54:26.216Z,4504.00
2023-05-24T06:55:26.204Z,4492.00
2023-05-24T06:56:26.197Z,4460.00
2023-05-24T06:57:26.188Z,4424.00
2023-05-24T06:58:26.368Z,4404.00
2023-05-24T06:59:26.147Z,4336.00
2023-05-24T07:00:26.154Z,4276.00
2023-05-24T07:01:26.169Z,4200.00
2023-05-24T07:02:26.126Z,4084.00
2023-05-24T07:03:26.124Z,4068.00
2023-05-24T07:04:26.090Z,4020.00
2023-05-24T07:05:26.069Z,3936.00
2023-05-24T07:06:26.060Z,3908.00
2023-05-24T07:07:26.044Z,3908.00
2023-05-24T07:08:26.025Z,3952.00
2023-05-24T07:09:26.031Z,4040.00
2023-05-24T07:10:26.106Z,4168.00
2023-05-24T07:11:26.021Z,4292.00
2023-05-24T07:12:26.244Z,4396.00
2023-05-24T07:13:25.957Z,4444.00
2023-05-24T07:14:26.010Z,4512.00
2023-05-24T07:15:25.982Z,4568.00
2023-05-24T07:16:25.965Z,4664.00
2023-05-24T07:17:25.941Z,4696.00
2023-05-24T07:18:25.884Z,4724.00
2023-05-24T07:19:25.936Z,4820.00
2023-05-24T07:20:26.056Z,4764.00
2023-05-24T07:21:25.846Z,4844.00
2023-05-24T07:22:25.839Z,4860.00
2023-05-24T07:23:25.827Z,4880.00
2023-05-24T07:24:25.808Z,4956.00
2023-05-24T07:25:25.802Z,5064.00
2023-05-24T07:26:25.785Z,5036.00
2023-05-24T07:27:25.784Z,5064.00
2023-05-24T07:28:25.752Z,4988.00
2023-05-24T07:29:25.731Z,4968.00
2023-05-24T07:31:25.704Z,5060.00
2023-05-24T07:32:25.804Z,5100.00
2023-05-24T07:33:25.755Z,5016.00
2023-05-24T07:34:25.663Z,5000.00
2023-05-24T07:35:25.863Z,5036.00
2023-05-24T07:36:25.647Z,5168.00
2023-05-24T07:37:25.624Z,5252.00
2023-05-24T07:38:25.617Z,5284.00
2023-05-24T07:39:25.598Z,5212.00
2023-05-24T07:40:25.586Z,5048.00
2023-05-24T07:41:25.573Z,4912.00
2023-05-24T07:42:25.561Z,4744.00
2023-05-24T07:43:25.542Z,4512.00
2023-05-24T07:44:25.536Z,4416.00
2023-05-24T07:45:25.514Z,4324.00
2023-05-24T07:46:25.541Z,4248.00
2023-05-24T07:47:25.574Z,4216.00
2023-05-24T07:48:25.480Z,4140.00
2023-05-24T07:49:25.469Z,4048.00
2023-05-24T07:50:25.467Z,3796.00
2023-05-24T07:51:25.522Z,3564.00
2023-05-24T07:52:25.440Z,3352.00
2023-05-24T07:53:25.410Z,3128.00
2023-05-24T07:54:25.404Z,2992.00
2023-05-24T07:55:25.377Z,2844.00
2023-05-24T07:56:25.614Z,2788.00
2023-05-24T07:57:25.346Z,2688.00
2023-05-24T07:58:25.332Z,2628.00
2023-05-24T07:59:25.322Z,2608.00
2023-05-24T08:00:25.335Z,2528.00
2023-05-24T08:01:25.294Z,2428.00
2023-05-24T08:02:25.353Z,2312.00
2023-05-24T08:03:25.380Z,2384.00
2023-05-24T08:04:25.255Z,2556.00
2023-05-24T08:05:25.251Z,2544.00
2023-05-24T08:06:25.286Z,2528.00
2023-05-24T08:07:25.272Z,2548.00
2023-05-24T08:08:25.196Z,2656.00
2023-05-24T08:09:25.181Z,2808.00
2023-05-24T08:10:25.174Z,2988.00
2023-05-24T08:11:25.163Z,3080.00
2023-05-24T08:12:25.140Z,3116.00
2023-05-24T08:13:25.128Z,3184.00
2023-05-24T08:14:25.109Z,3160.00
2023-05-24T08:15:25.094Z,3124.00
2023-05-24T08:16:25.149Z,3252.00
2023-05-24T08:17:25.110Z,3440.00
2023-05-24T08:18:25.217Z,3608.00
2023-05-24T08:19:25.053Z,3852.00
2023-05-24T08:20:25.066Z,3980.00
2023-05-24T08:21:25.020Z,4172.00
2023-05-24T08:22:24.999Z,4304.00
2023-05-24T08:23:25.076Z,4316.00
2023-05-24T08:24:24.977Z,4144.00
2023-05-24T08:25:24.963Z,3980.00
2023-05-24T08:26:24.950Z,3720.00
2023-05-24T08:27:24.934Z,3680.00
2023-05-24T08:28:24.961Z,3908.00
2023-05-24T08:29:24.910Z,4304.00
2023-05-24T08:30:24.924Z,4800.00
2023-05-24T08:31:24.960Z,5216.00
2023-05-24T08:32:24.896Z,5600.00
2023-05-24T08:33:24.850Z,5792.00
2023-05-24T08:34:24.840Z,5668.00
2023-05-24T08:35:24.822Z,5380.00
2023-05-24T08:36:24.813Z,5464.00
2023-05-24T08:37:24.790Z,5476.00
2023-05-24T08:38:24.780Z,5112.00
2023-05-24T08:39:24.801Z,4628.00
2023-05-24T08:40:24.755Z,4288.00
2023-05-24T08:41:24.757Z,4144.00
2023-05-24T08:42:24.730Z,4244.00
2023-05-24T08:43:24.721Z,4192.00
2023-05-24T08:44:24.704Z,4044.00
2023-05-24T08:45:24.682Z,3872.00
2023-05-24T08:46:24.721Z,3916.00
2023-05-24T08:47:24.721Z,4192.00
2023-05-24T08:48:24.709Z,4608.00
2023-05-24T08:49:24.634Z,5240.00
2023-05-24T08:50:24.633Z,6160.00
2023-05-24T08:51:24.608Z,6988.00
2023-05-24T08:52:24.908Z,7448.00
2023-05-24T08:53:24.593Z,7764.00
2023-05-24T08:54:24.569Z,7668.00
2023-05-24T08:55:24.582Z,7392.00
2023-05-24T08:56:24.541Z,7336.00
2023-05-24T08:57:24.523Z,7176.00
2023-05-24T08:58:24.513Z,7220.00
2023-05-24T08:59:24.518Z,7780.00
2023-05-24T09:00:24.494Z,9172.00
2023-05-24T09:01:24.504Z,10740.00
2023-05-24T09:02:24.464Z,11472.00
2023-05-24T09:03:24.591Z,11024.00
2023-05-24T09:04:24.486Z,10780.00
2023-05-24T09:05:24.423Z,10972.00
2023-05-24T09:06:24.407Z,11740.00
2023-05-24T09:07:24.417Z,12012.00
2023-05-24T09:08:24.382Z,10940.00
2023-05-24T09:09:24.367Z,9456.00
2023-05-24T09:10:24.409Z,9232.00
2023-05-24T09:11:24.357Z,9944.00
2023-05-24T09:12:35.642Z,12252.00
2023-05-24T09:13:25.347Z,13080.00
2023-05-24T09:14:24.589Z,11664.00
2023-05-24T09:15:24.282Z,13600.00
2023-05-24T09:16:24.296Z,13424.00
2023-05-24T09:17:24.299Z,13680.00
2023-05-24T09:18:24.360Z,17568.00
2023-05-24T09:19:24.222Z,18304.00
2023-05-24T09:20:24.261Z,16576.00
2023-05-24T09:21:24.198Z,13008.00
2023-05-24T09:22:24.185Z,11356.00
2023-05-24T09:23:24.169Z,10948.00
2023-05-24T09:24:24.200Z,11404.00
2023-05-24T09:25:24.145Z,11500.00
2023-05-24T09:26:24.124Z,12580.00
2023-05-24T09:27:24.137Z,17216.00
2023-05-24T09:28:24.102Z,23008.00
2023-05-24T09:29:24.096Z,23424.00
2023-05-24T09:30:24.089Z,25728.00
2023-05-24T09:31:24.122Z,22784.00
2023-05-24T09:32:24.115Z,23904.00
2023-05-24T09:33:24.032Z,21568.00
2023-05-24T09:34:24.017Z,21952.00
2023-05-24T09:35:24.004Z,17408.00
2023-05-24T09:36:23.989Z,12772.00
2023-05-24T09:37:27.468Z,11328.00
2023-05-24T09:38:23.962Z,8724.00
2023-05-24T09:39:23.961Z,7580.00
2023-05-24T09:40:23.930Z,7560.00
2023-05-24T09:41:23.922Z,5556.00
2023-05-24T09:42:23.922Z,4656.00
2023-05-24T09:43:26.249Z,4012.00
2023-05-24T09:44:23.902Z,3916.00
2023-05-24T09:45:23.879Z,3968.00
2023-05-24T09:46:23.907Z,3956.00
2023-05-24T09:47:23.919Z,3948.00
2023-05-24T09:48:23.822Z,4096.00
2023-05-24T09:49:23.825Z,4264.00
2023-05-24T09:50:23.803Z,4364.00
2023-05-24T09:51:23.974Z,4684.00
2023-05-24T09:52:23.781Z,4960.00
2023-05-24T09:53:23.774Z,4924.00
2023-05-24T09:54:23.749Z,4872.00
2023-05-24T09:55:23.747Z,4848.00
2023-05-24T09:56:23.750Z,4892.00
2023-05-24T09:57:23.764Z,4996.00
2023-05-24T09:58:23.696Z,5364.00
2023-05-24T09:59:23.731Z,5912.00
2023-05-24T10:00:23.676Z,6564.00
2023-05-24T10:01:23.732Z,7376.00
2023-05-24T10:02:23.643Z,7852.00
2023-05-24T10:03:23.800Z,8108.00
2023-05-24T10:04:23.679Z,8192.00
2023-05-24T10:05:23.601Z,8008.00
2023-05-24T10:06:23.597Z,7756.00
2023-05-24T10:07:23.582Z,7368.00
2023-05-24T10:08:23.611Z,6964.00
2023-05-24T10:09:23.797Z,6400.00
2023-05-24T10:10:23.530Z,6068.00
2023-05-24T10:11:23.520Z,5940.00
2023-05-24T10:12:23.498Z,5832.00
2023-05-24T10:13:23.495Z,5692.00
2023-05-24T10:14:23.493Z,5628.00
2023-05-24T10:15:23.555Z,5536.00
2023-05-24T10:16:23.453Z,5516.00
2023-05-24T10:17:23.478Z,5512.00
2023-05-24T10:18:23.419Z,5452.00
2023-05-24T10:19:23.411Z,5404.00
2023-05-24T10:20:23.585Z,5428.00
2023-05-24T10:21:23.420Z,5196.00
2023-05-24T10:22:23.370Z,5148.00
2023-05-24T10:23:23.354Z,5064.00
2023-05-24T10:24:23.343Z,5004.00
2023-05-24T10:25:23.335Z,4872.00
2023-05-24T10:26:23.311Z,4708.00
2023-05-24T10:27:23.304Z,4584.00
2023-05-24T10:28:23.290Z,4468.00
2023-05-24T10:29:23.275Z,4360.00
2023-05-24T10:30:23.273Z,4268.00
2023-05-24T10:31:23.454Z,4200.00
2023-05-24T10:32:23.255Z,4112.00
2023-05-24T10:33:23.221Z,4024.00
2023-05-24T10:34:23.208Z,3948.00
2023-05-24T10:35:23.201Z,3920.00
2023-05-24T10:36:23.183Z,3864.00
2023-05-24T10:37:23.178Z,3848.00
2023-05-24T10:38:23.147Z,3856.00
2023-05-24T10:39:23.143Z,3880.00
2023-05-24T10:40:23.139Z,3816.00
2023-05-24T10:41:23.119Z,3820.00
2023-05-24T10:42:23.253Z,3820.00
2023-05-24T10:43:23.088Z,3772.00
2023-05-24T10:44:23.077Z,3756.00
2023-05-24T10:45:23.082Z,3720.00
2023-05-24T10:46:23.121Z,3664.00
2023-05-24T10:47:23.287Z,3624.00
2023-05-24T10:48:23.022Z,3652.00
2023-05-24T10:49:23.002Z,3648.00
2023-05-24T10:50:22.993Z,3688.00
2023-05-24T10:51:22.969Z,3712.00
2023-05-24T10:52:22.972Z,3688.00
2023-05-24T10:53:22.961Z,3760.00
2023-05-24T10:54:22.925Z,3732.00
2023-05-24T10:55:22.922Z,3796.00
2023-05-24T10:56:22.903Z,3872.00
2023-05-24T10:57:22.900Z,3896.00
2023-05-24T10:58:22.875Z,3844.00
2023-05-24T10:59:22.869Z,3884.00
2023-05-24T11:00:33.722Z,3904.00
2023-05-24T11:01:23.869Z,3920.00
2023-05-24T11:02:22.935Z,3880.00
2023-05-24T11:03:22.904Z,3940.00
2023-05-24T11:04:22.993Z,3904.00
2023-05-24T11:05:22.850Z,3780.00
2023-05-24T11:06:22.766Z,3788.00
2023-05-24T11:07:22.756Z,3804.00
2023-05-24T11:08:22.740Z,3724.00
2023-05-24T11:09:22.738Z,3716.00
2023-05-24T11:10:22.716Z,3808.00
2023-05-24T11:11:25.822Z,3744.00
2023-05-24T11:12:22.697Z,3780.00
2023-05-24T11:13:22.673Z,3788.00
2023-05-24T11:14:22.659Z,3672.00
2023-05-24T11:15:22.660Z,3612.00
2023-05-24T11:16:22.680Z,3716.00
2023-05-24T11:17:23.139Z,3692.00
2023-05-24T11:18:22.684Z,3656.00
2023-05-24T11:19:22.618Z,3560.00
2023-05-24T11:20:22.697Z,3460.00
2023-05-24T11:21:22.569Z,3360.00
2023-05-24T11:22:22.569Z,3292.00
2023-05-24T11:23:22.548Z,3172.00
2023-05-24T11:24:22.659Z,3132.00
2023-05-24T11:25:22.531Z,3056.00
2023-05-24T11:26:22.514Z,2968.00
2023-05-24T11:27:22.487Z,2904.00
2023-05-24T11:28:22.528Z,2892.00
2023-05-24T11:29:23.042Z,2860.00
2023-05-24T11:30:22.436Z,2880.00
2023-05-24T11:31:22.485Z,2872.00
2023-05-24T11:32:22.512Z,2900.00
2023-05-24T11:33:22.408Z,2908.00
2023-05-24T11:34:22.384Z,2968.00
2023-05-24T11:35:22.492Z,3000.00
2023-05-24T11:36:22.354Z,3036.00
2023-05-24T11:37:31.485Z,3036.00
2023-05-24T11:38:25.066Z,3044.00
2023-05-24T11:39:22.315Z,3048.00
2023-05-24T11:40:22.297Z,3048.00
2023-05-24T11:41:22.293Z,3088.00
2023-05-24T11:42:22.284Z,3056.00
2023-05-24T11:43:22.257Z,2992.00
2023-05-24T11:44:22.253Z,3012.00
2023-05-24T11:45:22.242Z,3100.00
2023-05-24T11:46:22.286Z,3216.00
2023-05-24T11:47:22.295Z,3264.00
2023-05-24T11:48:22.346Z,3332.00
2023-05-24T11:49:22.184Z,3404.00
2023-05-24T11:50:22.169Z,3500.00
2023-05-24T11:51:22.184Z,3504.00
2023-05-24T11:52:22.148Z,3528.00
2023-05-24T11:53:22.135Z,3552.00
2023-05-24T11:54:22.101Z,3548.00
2023-05-24T11:55:22.090Z,3576.00
2023-05-24T11:56:22.084Z,3592.00
2023-05-24T11:57:22.076Z,3644.00
2023-05-24T11:58:22.052Z,3700.00
2023-05-24T11:59:22.037Z,3772.00
2023-05-24T12:00:22.039Z,3828.00
2023-05-24T12:01:22.019Z,3844.00
2023-05-24T12:02:22.261Z,3816.00
2023-05-24T12:03:22.344Z,3768.00
2023-05-24T12:04:22.050Z,3784.00
2023-05-24T12:05:21.952Z,3848.00
2023-05-24T12:06:22.179Z,3932.00
2023-05-24T12:07:21.952Z,4040.00
2023-05-24T12:08:22.016Z,4160.00
2023-05-24T12:09:21.903Z,4284.00
2023-05-24T12:10:23.053Z,4396.00
2023-05-24T12:11:22.054Z,4488.00
2023-05-24T12:12:27.110Z,4616.00
2023-05-24T12:13:22.903Z,4784.00
2023-05-24T12:14:21.965Z,5132.00
2023-05-24T12:15:21.836Z,5672.00
2023-05-24T12:16:21.830Z,6096.00
2023-05-24T12:17:21.790Z,6832.00
2023-05-24T12:18:21.776Z,7228.00
2023-05-24T12:19:32.258Z,7368.00
2023-05-24T12:20:22.832Z,7528.00
2023-05-24T12:21:21.733Z,7720.00
2023-05-24T12:22:21.723Z,7916.00
2023-05-24T12:23:21.765Z,8184.00
2023-05-24T12:24:21.704Z,8380.00
2023-05-24T12:25:22.049Z,9020.00
2023-05-24T12:26:21.679Z,10408.00
2023-05-24T12:27:21.656Z,10800.00
2023-05-24T12:28:21.654Z,10936.00
2023-05-24T12:29:21.629Z,10424.00